Jefferson Hills, Pennsylvania
Current Conditions -  °F | °C
As of 3:53 AM on Saturday 25 Oct 2014 (Local Time) from KAGC Reporting Station
Overcast Overcast  
Wind Chill:   Ceiling: 4600
Heat Index:   Visibility: 10mi
Dew Point:   Wind: 7mph
Humidity: 64%   Direction: 200°SSW
Pressure: 29.98"   Gusts: NA
Location:  40.2958°N, 79.9241°W
Report Text: KAGC 250753Z AUTO 20006KT 10SM OVC046 09/03 A2998 RMK AO2 SLP157 T00940028 TSNO
Loading
Personal Weather Stations






























Interactive Weather Map
Tropical Storm Tracking
New forecast layout! Learn more

10-Day Weather Forecast

Advertisements
Track Severe Weather on mobile